sensor_id;sensor_type;location;lat;lon;timestamp;P1;durP1;ratioP1;P2;durP2;ratioP2
40322;SDS011;26030;51.164;17.100;2023-02-15T00:03:38;13.20;;;10.80;;
40322;SDS011;26030;51.164;17.100;2023-02-15T00:08:42;11.50;;;9.70;;
40322;SDS011;26030;51.164;17.100;2023-02-15T00:13:46;12.20;;;10.60;;
40322;SDS011;26030;51.164;17.100;2023-02-15T00:18:51;12.20;;;10.20;;
40322;SDS011;26030;51.164;17.100;2023-02-15T00:23:57;12.00;;;10.50;;
40322;SDS011;26030;51.164;17.100;2023-02-15T00:29:01;11.60;;;10.10;;
40322;SDS011;26030;51.164;17.100;2023-02-15T00:34:26;12.70;;;10.60;;
40322;SDS011;26030;51.164;17.100;2023-02-15T00:39:32;11.80;;;9.80;;
40322;SDS011;26030;51.164;17.100;2023-02-15T00:44:36;10.60;;;9.60;;
40322;SDS011;26030;51.164;17.100;2023-02-15T00:49:41;13.00;;;10.10;;
40322;SDS011;26030;51.164;17.100;2023-02-15T00:54:45;11.60;;;10.20;;
40322;SDS011;26030;51.164;17.100;2023-02-15T00:59:49;10.50;;;8.90;;
40322;SDS011;26030;51.164;17.100;2023-02-15T01:04:53;13.20;;;10.20;;
40322;SDS011;26030;51.164;17.100;2023-02-15T01:09:58;12.20;;;10.10;;
40322;SDS011;26030;51.164;17.100;2023-02-15T01:15:03;12.60;;;9.90;;
40322;SDS011;26030;51.164;17.100;2023-02-15T01:20:07;12.30;;;10.60;;
40322;SDS011;26030;51.164;17.100;2023-02-15T01:25:12;10.80;;;9.50;;
40322;SDS011;26030;51.164;17.100;2023-02-15T01:30:17;10.90;;;9.10;;
40322;SDS011;26030;51.164;17.100;2023-02-15T01:35:21;11.90;;;10.00;;
40322;SDS011;26030;51.164;17.100;2023-02-15T01:40:26;10.80;;;9.70;;
40322;SDS011;26030;51.164;17.100;2023-02-15T01:45:32;11.40;;;10.10;;
40322;SDS011;26030;51.164;17.100;2023-02-15T01:50:40;11.50;;;10.20;;
40322;SDS011;26030;51.164;17.100;2023-02-15T02:01:00;10.70;;;9.50;;
40322;SDS011;26030;51.164;17.100;2023-02-15T02:06:04;11.40;;;10.20;;
40322;SDS011;26030;51.164;17.100;2023-02-15T02:11:13;11.10;;;9.80;;
40322;SDS011;26030;51.164;17.100;2023-02-15T02:27:42;10.10;;;9.00;;
40322;SDS011;26030;51.164;17.100;2023-02-15T02:43:58;9.70;;;8.80;;
40322;SDS011;26030;51.164;17.100;2023-02-15T02:49:07;9.40;;;8.50;;
40322;SDS011;26030;51.164;17.100;2023-02-15T02:54:11;10.30;;;8.70;;
40322;SDS011;26030;51.164;17.100;2023-02-15T02:59:29;9.90;;;9.00;;
40322;SDS011;26030;51.164;17.100;2023-02-15T03:04:37;10.50;;;8.80;;
40322;SDS011;26030;51.164;17.100;2023-02-15T03:09:45;10.00;;;9.00;;
40322;SDS011;26030;51.164;17.100;2023-02-15T03:15:05;10.90;;;9.40;;
40322;SDS011;26030;51.164;17.100;2023-02-15T03:20:18;8.70;;;7.80;;
40322;SDS011;26030;51.164;17.100;2023-02-15T03:25:30;10.60;;;8.40;;
40322;SDS011;26030;51.164;17.100;2023-02-15T03:30:37;9.30;;;8.40;;
40322;SDS011;26030;51.164;17.100;2023-02-15T03:35:50;8.60;;;7.80;;
40322;SDS011;26030;51.164;17.100;2023-02-15T03:40:59;9.00;;;8.10;;
40322;SDS011;26030;51.164;17.100;2023-02-15T03:51:28;9.00;;;8.10;;
40322;SDS011;26030;51.164;17.100;2023-02-15T03:56:41;9.30;;;8.10;;
40322;SDS011;26030;51.164;17.100;2023-02-15T04:02:15;9.30;;;8.30;;
40322;SDS011;26030;51.164;17.100;2023-02-15T04:07:23;9.90;;;8.30;;
40322;SDS011;26030;51.164;17.100;2023-02-15T04:12:27;8.70;;;7.90;;
40322;SDS011;26030;51.164;17.100;2023-02-15T04:17:31;9.00;;;7.70;;
40322;SDS011;26030;51.164;17.100;2023-02-15T04:22:35;8.70;;;7.80;;
40322;SDS011;26030;51.164;17.100;2023-02-15T04:27:58;8.40;;;7.60;;
40322;SDS011;26030;51.164;17.100;2023-02-15T04:33:02;8.70;;;7.90;;
40322;SDS011;26030;51.164;17.100;2023-02-15T04:38:06;8.80;;;7.90;;
40322;SDS011;26030;51.164;17.100;2023-02-15T04:43:10;8.50;;;7.70;;
40322;SDS011;26030;51.164;17.100;2023-02-15T04:48:15;9.10;;;8.10;;
40322;SDS011;26030;51.164;17.100;2023-02-15T04:53:19;9.10;;;7.80;;
40322;SDS011;26030;51.164;17.100;2023-02-15T04:58:23;8.60;;;7.40;;
40322;SDS011;26030;51.164;17.100;2023-02-15T05:03:28;8.20;;;7.40;;
40322;SDS011;26030;51.164;17.100;2023-02-15T05:08:32;9.40;;;7.70;;
40322;SDS011;26030;51.164;17.100;2023-02-15T05:13:36;9.80;;;7.20;;
40322;SDS011;26030;51.164;17.100;2023-02-15T05:18:40;8.50;;;7.40;;
40322;SDS011;26030;51.164;17.100;2023-02-15T05:23:45;9.40;;;7.20;;
40322;SDS011;26030;51.164;17.100;2023-02-15T05:28:49;8.10;;;7.30;;
40322;SDS011;26030;51.164;17.100;2023-02-15T05:33:53;7.80;;;6.80;;
40322;SDS011;26030;51.164;17.100;2023-02-15T05:38:58;8.30;;;7.40;;
40322;SDS011;26030;51.164;17.100;2023-02-15T05:44:02;9.00;;;7.20;;
40322;SDS011;26030;51.164;17.100;2023-02-15T05:49:06;9.00;;;7.70;;
40322;SDS011;26030;51.164;17.100;2023-02-15T05:54:10;7.80;;;7.10;;
40322;SDS011;26030;51.164;17.100;2023-02-15T05:59:15;8.50;;;6.90;;
40322;SDS011;26030;51.164;17.100;2023-02-15T06:04:19;9.70;;;7.90;;
40322;SDS011;26030;51.164;17.100;2023-02-15T06:09:23;7.20;;;6.50;;
40322;SDS011;26030;51.164;17.100;2023-02-15T06:14:27;8.30;;;7.50;;
40322;SDS011;26030;51.164;17.100;2023-02-15T06:19:31;7.20;;;6.60;;
40322;SDS011;26030;51.164;17.100;2023-02-15T06:24:35;8.90;;;6.90;;
40322;SDS011;26030;51.164;17.100;2023-02-15T06:29:39;8.20;;;7.20;;
40322;SDS011;26030;51.164;17.100;2023-02-15T06:34:44;7.50;;;6.70;;
40322;SDS011;26030;51.164;17.100;2023-02-15T06:39:50;7.70;;;6.90;;
40322;SDS011;26030;51.164;17.100;2023-02-15T06:44:56;8.20;;;7.40;;
40322;SDS011;26030;51.164;17.100;2023-02-15T06:50:01;9.50;;;7.20;;
40322;SDS011;26030;51.164;17.100;2023-02-15T06:55:05;7.60;;;7.00;;
40322;SDS011;26030;51.164;17.100;2023-02-15T07:00:10;7.40;;;6.70;;
40322;SDS011;26030;51.164;17.100;2023-02-15T07:05:15;7.10;;;6.50;;
40322;SDS011;26030;51.164;17.100;2023-02-15T07:10:19;7.00;;;6.40;;
40322;SDS011;26030;51.164;17.100;2023-02-15T07:15:23;7.90;;;6.60;;
40322;SDS011;26030;51.164;17.100;2023-02-15T07:20:27;7.70;;;7.00;;
40322;SDS011;26030;51.164;17.100;2023-02-15T07:25:32;8.70;;;6.70;;
40322;SDS011;26030;51.164;17.100;2023-02-15T07:30:37;10.50;;;6.60;;
40322;SDS011;26030;51.164;17.100;2023-02-15T07:35:50;8.00;;;7.30;;
40322;SDS011;26030;51.164;17.100;2023-02-15T07:41:03;11.20;;;6.30;;
40322;SDS011;26030;51.164;17.100;2023-02-15T07:46:10;7.70;;;7.00;;
40322;SDS011;26030;51.164;17.100;2023-02-15T07:51:15;9.00;;;6.90;;
40322;SDS011;26030;51.164;17.100;2023-02-15T07:56:19;7.60;;;6.80;;
40322;SDS011;26030;51.164;17.100;2023-02-15T08:01:31;7.40;;;6.40;;
40322;SDS011;26030;51.164;17.100;2023-02-15T08:06:36;8.40;;;7.50;;
40322;SDS011;26030;51.164;17.100;2023-02-15T08:11:41;7.50;;;6.60;;
40322;SDS011;26030;51.164;17.100;2023-02-15T08:16:50;8.00;;;7.20;;
40322;SDS011;26030;51.164;17.100;2023-02-15T08:22:05;7.80;;;6.50;;
40322;SDS011;26030;51.164;17.100;2023-02-15T08:27:10;7.50;;;6.70;;
40322;SDS011;26030;51.164;17.100;2023-02-15T08:32:14;6.80;;;6.10;;
40322;SDS011;26030;51.164;17.100;2023-02-15T08:37:19;7.30;;;6.60;;
40322;SDS011;26030;51.164;17.100;2023-02-15T08:42:23;8.90;;;6.80;;
40322;SDS011;26030;51.164;17.100;2023-02-15T08:47:27;8.80;;;7.20;;
40322;SDS011;26030;51.164;17.100;2023-02-15T08:52:31;7.80;;;6.40;;
40322;SDS011;26030;51.164;17.100;2023-02-15T08:57:35;7.90;;;7.10;;
40322;SDS011;26030;51.164;17.100;2023-02-15T09:02:41;8.30;;;6.80;;
40322;SDS011;26030;51.164;17.100;2023-02-15T09:07:45;9.60;;;6.60;;
40322;SDS011;26030;51.164;17.100;2023-02-15T09:12:49;9.90;;;6.70;;
40322;SDS011;26030;51.164;17.100;2023-02-15T09:17:54;11.90;;;7.10;;
40322;SDS011;26030;51.164;17.100;2023-02-15T09:23:00;7.90;;;6.90;;
40322;SDS011;26030;51.164;17.100;2023-02-15T09:28:04;8.20;;;6.90;;
40322;SDS011;26030;51.164;17.100;2023-02-15T09:33:08;10.40;;;6.60;;
40322;SDS011;26030;51.164;17.100;2023-02-15T09:38:12;7.70;;;6.90;;
40322;SDS011;26030;51.164;17.100;2023-02-15T09:49:03;14.10;;;7.70;;
40322;SDS011;26030;51.164;17.100;2023-02-15T09:59:32;9.80;;;7.20;;
40322;SDS011;26030;51.164;17.100;2023-02-15T10:15:24;10.70;;;7.30;;
40322;SDS011;26030;51.164;17.100;2023-02-15T10:21:03;8.20;;;7.30;;
40322;SDS011;26030;51.164;17.100;2023-02-15T10:31:31;8.20;;;6.80;;
40322;SDS011;26030;51.164;17.100;2023-02-15T10:36:51;8.30;;;7.40;;
40322;SDS011;26030;51.164;17.100;2023-02-15T10:42:19;7.60;;;6.80;;
40322;SDS011;26030;51.164;17.100;2023-02-15T11:09:15;11.00;;;7.50;;
40322;SDS011;26030;51.164;17.100;2023-02-15T11:25:32;8.90;;;7.90;;
40322;SDS011;26030;51.164;17.100;2023-02-15T11:30:44;11.40;;;7.40;;
40322;SDS011;26030;51.164;17.100;2023-02-15T11:36:15;11.10;;;7.10;;
40322;SDS011;26030;51.164;17.100;2023-02-15T11:41:19;16.90;;;7.40;;
40322;SDS011;26030;51.164;17.100;2023-02-15T11:46:24;20.30;;;9.10;;
40322;SDS011;26030;51.164;17.100;2023-02-15T11:51:29;12.40;;;7.90;;
40322;SDS011;26030;51.164;17.100;2023-02-15T11:56:33;11.90;;;7.30;;
40322;SDS011;26030;51.164;17.100;2023-02-15T12:01:43;13.40;;;8.00;;
40322;SDS011;26030;51.164;17.100;2023-02-15T12:12:23;14.50;;;7.80;;
40322;SDS011;26030;51.164;17.100;2023-02-15T12:17:54;19.00;;;7.60;;
40322;SDS011;26030;51.164;17.100;2023-02-15T12:23:11;18.50;;;7.80;;
40322;SDS011;26030;51.164;17.100;2023-02-15T12:28:43;22.50;;;8.10;;
40322;SDS011;26030;51.164;17.100;2023-02-15T12:34:12;14.00;;;7.00;;
40322;SDS011;26030;51.164;17.100;2023-02-15T12:39:21;18.50;;;8.20;;
40322;SDS011;26030;51.164;17.100;2023-02-15T12:44:30;15.90;;;7.40;;
40322;SDS011;26030;51.164;17.100;2023-02-15T12:49:36;12.30;;;8.00;;
40322;SDS011;26030;51.164;17.100;2023-02-15T12:54:42;14.10;;;7.90;;
40322;SDS011;26030;51.164;17.100;2023-02-15T12:59:57;15.70;;;7.70;;
40322;SDS011;26030;51.164;17.100;2023-02-15T13:10:35;10.40;;;7.60;;
40322;SDS011;26030;51.164;17.100;2023-02-15T13:15:40;11.80;;;8.20;;
40322;SDS011;26030;51.164;17.100;2023-02-15T13:20:45;14.50;;;8.40;;
40322;SDS011;26030;51.164;17.100;2023-02-15T13:25:50;19.60;;;8.40;;
40322;SDS011;26030;51.164;17.100;2023-02-15T13:30:55;13.40;;;8.30;;
40322;SDS011;26030;51.164;17.100;2023-02-15T13:41:09;14.40;;;7.80;;
40322;SDS011;26030;51.164;17.100;2023-02-15T13:52:08;13.00;;;8.40;;
40322;SDS011;26030;51.164;17.100;2023-02-15T14:13:44;13.00;;;7.80;;
40322;SDS011;26030;51.164;17.100;2023-02-15T14:18:55;18.50;;;8.50;;
40322;SDS011;26030;51.164;17.100;2023-02-15T14:29:56;15.80;;;9.00;;
40322;SDS011;26030;51.164;17.100;2023-02-15T14:35:03;10.10;;;9.00;;
40322;SDS011;26030;51.164;17.100;2023-02-15T14:46:14;11.30;;;9.00;;
40322;SDS011;26030;51.164;17.100;2023-02-15T15:07:17;15.00;;;10.00;;
40322;SDS011;26030;51.164;17.100;2023-02-15T15:22:40;18.90;;;10.00;;
40322;SDS011;26030;51.164;17.100;2023-02-15T15:27:52;12.30;;;10.40;;
40322;SDS011;26030;51.164;17.100;2023-02-15T15:49:24;15.30;;;9.90;;
40322;SDS011;26030;51.164;17.100;2023-02-15T15:54:30;15.90;;;10.60;;
40322;SDS011;26030;51.164;17.100;2023-02-15T15:59:35;11.50;;;10.30;;
40322;SDS011;26030;51.164;17.100;2023-02-15T16:04:41;17.80;;;10.30;;
40322;SDS011;26030;51.164;17.100;2023-02-15T16:09:59;16.90;;;10.80;;
40322;SDS011;26030;51.164;17.100;2023-02-15T16:15:13;14.00;;;10.10;;
40322;SDS011;26030;51.164;17.100;2023-02-15T16:20:32;12.70;;;11.10;;
40322;SDS011;26030;51.164;17.100;2023-02-15T16:31:21;16.70;;;11.80;;
40322;SDS011;26030;51.164;17.100;2023-02-15T16:36:29;13.00;;;11.10;;
40322;SDS011;26030;51.164;17.100;2023-02-15T16:41:35;20.20;;;12.00;;
40322;SDS011;26030;51.164;17.100;2023-02-15T16:46:44;16.20;;;12.20;;
40322;SDS011;26030;51.164;17.100;2023-02-15T16:52:03;16.40;;;13.10;;
40322;SDS011;26030;51.164;17.100;2023-02-15T16:57:20;13.40;;;11.90;;
40322;SDS011;26030;51.164;17.100;2023-02-15T17:02:28;14.60;;;13.00;;
40322;SDS011;26030;51.164;17.100;2023-02-15T17:08:18;20.40;;;13.40;;
40322;SDS011;26030;51.164;17.100;2023-02-15T17:13:26;15.60;;;13.40;;
40322;SDS011;26030;51.164;17.100;2023-02-15T17:18:45;17.00;;;13.40;;
40322;SDS011;26030;51.164;17.100;2023-02-15T17:23:57;15.40;;;13.80;;
40322;SDS011;26030;51.164;17.100;2023-02-15T17:29:26;16.80;;;13.70;;
40322;SDS011;26030;51.164;17.100;2023-02-15T17:40:22;18.20;;;14.00;;
40322;SDS011;26030;51.164;17.100;2023-02-15T17:45:40;19.30;;;14.00;;
40322;SDS011;26030;51.164;17.100;2023-02-15T17:50:49;21.80;;;14.70;;
40322;SDS011;26030;51.164;17.100;2023-02-15T17:55:54;21.40;;;15.10;;
40322;SDS011;26030;51.164;17.100;2023-02-15T18:01:06;19.70;;;15.50;;
40322;SDS011;26030;51.164;17.100;2023-02-15T18:06:34;16.60;;;14.70;;
40322;SDS011;26030;51.164;17.100;2023-02-15T18:12:23;19.50;;;15.00;;
40322;SDS011;26030;51.164;17.100;2023-02-15T18:17:38;20.30;;;15.40;;
40322;SDS011;26030;51.164;17.100;2023-02-15T18:22:49;23.60;;;16.30;;
40322;SDS011;26030;51.164;17.100;2023-02-15T18:27:59;18.20;;;16.10;;
40322;SDS011;26030;51.164;17.100;2023-02-15T18:33:24;22.10;;;15.70;;
40322;SDS011;26030;51.164;17.100;2023-02-15T18:38:34;25.40;;;16.60;;
40322;SDS011;26030;51.164;17.100;2023-02-15T18:43:46;23.10;;;16.30;;
40322;SDS011;26030;51.164;17.100;2023-02-15T18:48:55;21.30;;;15.60;;
40322;SDS011;26030;51.164;17.100;2023-02-15T18:54:12;17.00;;;15.30;;
40322;SDS011;26030;51.164;17.100;2023-02-15T18:59:23;19.00;;;16.40;;
40322;SDS011;26030;51.164;17.100;2023-02-15T19:04:30;24.30;;;18.60;;
40322;SDS011;26030;51.164;17.100;2023-02-15T19:09:40;22.10;;;16.70;;
40322;SDS011;26030;51.164;17.100;2023-02-15T19:14:45;21.00;;;17.20;;
40322;SDS011;26030;51.164;17.100;2023-02-15T19:19:52;18.60;;;16.00;;
40322;SDS011;26030;51.164;17.100;2023-02-15T19:25:01;21.70;;;16.20;;
40322;SDS011;26030;51.164;17.100;2023-02-15T19:30:18;22.20;;;15.60;;
40322;SDS011;26030;51.164;17.100;2023-02-15T19:35:33;21.80;;;16.60;;
40322;SDS011;26030;51.164;17.100;2023-02-15T19:40:41;19.50;;;17.20;;
40322;SDS011;26030;51.164;17.100;2023-02-15T19:45:48;21.40;;;17.10;;
40322;SDS011;26030;51.164;17.100;2023-02-15T19:50:59;20.20;;;17.70;;
40322;SDS011;26030;51.164;17.100;2023-02-15T19:56:31;23.60;;;17.10;;
40322;SDS011;26030;51.164;17.100;2023-02-15T20:01:39;26.10;;;17.70;;
40322;SDS011;26030;51.164;17.100;2023-02-15T20:06:49;25.10;;;17.90;;
40322;SDS011;26030;51.164;17.100;2023-02-15T20:11:56;29.70;;;18.40;;
40322;SDS011;26030;51.164;17.100;2023-02-15T20:17:03;29.70;;;19.70;;
40322;SDS011;26030;51.164;17.100;2023-02-15T20:22:25;21.10;;;18.70;;
40322;SDS011;26030;51.164;17.100;2023-02-15T20:27:34;32.80;;;18.70;;
40322;SDS011;26030;51.164;17.100;2023-02-15T20:32:42;31.40;;;21.00;;
40322;SDS011;26030;51.164;17.100;2023-02-15T20:37:56;26.70;;;21.30;;
40322;SDS011;26030;51.164;17.100;2023-02-15T20:43:11;28.30;;;20.90;;
40322;SDS011;26030;51.164;17.100;2023-02-15T20:48:20;25.50;;;20.20;;
40322;SDS011;26030;51.164;17.100;2023-02-15T20:53:28;29.90;;;20.40;;
40322;SDS011;26030;51.164;17.100;2023-02-15T20:58:41;28.10;;;21.70;;
40322;SDS011;26030;51.164;17.100;2023-02-15T21:03:47;25.20;;;21.60;;
40322;SDS011;26030;51.164;17.100;2023-02-15T21:08:54;26.50;;;21.90;;
40322;SDS011;26030;51.164;17.100;2023-02-15T21:14:03;27.30;;;22.00;;
40322;SDS011;26030;51.164;17.100;2023-02-15T21:19:14;28.50;;;21.00;;
40322;SDS011;26030;51.164;17.100;2023-02-15T21:24:25;30.50;;;21.90;;
40322;SDS011;26030;51.164;17.100;2023-02-15T21:29:32;32.50;;;21.80;;
40322;SDS011;26030;51.164;17.100;2023-02-15T21:34:39;33.30;;;21.80;;
40322;SDS011;26030;51.164;17.100;2023-02-15T21:39:45;28.90;;;22.10;;
40322;SDS011;26030;51.164;17.100;2023-02-15T21:44:52;29.70;;;22.10;;
40322;SDS011;26030;51.164;17.100;2023-02-15T21:50:22;29.40;;;21.70;;
40322;SDS011;26030;51.164;17.100;2023-02-15T21:55:47;30.80;;;22.90;;
40322;SDS011;26030;51.164;17.100;2023-02-15T22:00:54;34.70;;;22.90;;
40322;SDS011;26030;51.164;17.100;2023-02-15T22:06:01;34.00;;;23.20;;
40322;SDS011;26030;51.164;17.100;2023-02-15T22:11:11;30.30;;;22.00;;
40322;SDS011;26030;51.164;17.100;2023-02-15T22:16:21;37.40;;;23.00;;
40322;SDS011;26030;51.164;17.100;2023-02-15T22:21:25;31.80;;;23.10;;
40322;SDS011;26030;51.164;17.100;2023-02-15T22:26:31;34.10;;;22.10;;
40322;SDS011;26030;51.164;17.100;2023-02-15T22:31:35;29.80;;;22.00;;
40322;SDS011;26030;51.164;17.100;2023-02-15T22:36:39;32.10;;;21.80;;
40322;SDS011;26030;51.164;17.100;2023-02-15T22:41:43;30.60;;;23.00;;
40322;SDS011;26030;51.164;17.100;2023-02-15T22:46:48;34.10;;;23.50;;
40322;SDS011;26030;51.164;17.100;2023-02-15T22:51:52;31.70;;;23.00;;
40322;SDS011;26030;51.164;17.100;2023-02-15T22:56:56;31.70;;;23.40;;
40322;SDS011;26030;51.164;17.100;2023-02-15T23:02:01;32.70;;;24.90;;
40322;SDS011;26030;51.164;17.100;2023-02-15T23:07:14;34.70;;;24.30;;
40322;SDS011;26030;51.164;17.100;2023-02-15T23:12:25;32.20;;;23.60;;
40322;SDS011;26030;51.164;17.100;2023-02-15T23:17:29;30.40;;;22.50;;
40322;SDS011;26030;51.164;17.100;2023-02-15T23:22:33;28.20;;;21.70;;
40322;SDS011;26030;51.164;17.100;2023-02-15T23:27:38;31.90;;;21.60;;
40322;SDS011;26030;51.164;17.100;2023-02-15T23:33:00;29.10;;;20.70;;
40322;SDS011;26030;51.164;17.100;2023-02-15T23:38:18;30.20;;;21.40;;
40322;SDS011;26030;51.164;17.100;2023-02-15T23:43:22;26.60;;;21.30;;
40322;SDS011;26030;51.164;17.100;2023-02-15T23:48:37;26.80;;;21.20;;
40322;SDS011;26030;51.164;17.100;2023-02-15T23:53:41;28.80;;;20.50;;
40322;SDS011;26030;51.164;17.100;2023-02-15T23:58:45;24.80;;;19.70;;
